Kalskag Airport

About
Name: Kalskag Airport
Identifier:  KLG/PALG
Owner:  State of Alaska DOT&PF - Central Region
Public/Private:  Public
Local Time:  22. Aug 20:56 AKDT
Description: Kalskag Airport is a public airport located one mile west of the central business district of Upper Kalskag, a city in the Bethel Census Area of the U.S. state of Alaska. The airport is owned by the state. It is situated on the Kuskokwim River, between the cities of Upper Kalskag and Lower Kalskag.
Source: Wikipedia
Location
Runways
Identifier Length (m/ft) Surface
6/24 3,172/3,172 Gravel
Flights per Day
1 flights
Distance: 74km (46mi)
Punctuality
28% (0 flights per day delayed)
Delay Average: 266 minutes
Current Weather
 18 C (Humidity: 52%)
  8kt (14km/h / 9mph) from 270°
  Few clouds at 5,500 feet (1,676 meter)
  16km (10 mi.)
 METAR PALG 230356Z AUTO 27008KT 10SM FEW055 18/08 A2963 RMK AO2 SLP037 T01830078

Current Flights

Departures
Number Departure To Airline
Arrivals
Number Arrival From Airline

Current Delays

Departures
N/A
Arrivals
N/A

Destinations

Top Destinations
Airport Flights
per week
Seats
per week
  Shageluk (SHX) 0 - 0 0

Airlines & Planes

Top Airlines
Airline Flights
per Day
Seats
per Day
SkyBus International Airlines 0 -
Top Plane Types
Model Flights Seats
Pilatus PC-12 0.0/day - 0